createdAt,value
2022-08-08T00:02:03.831Z,17.60
2022-08-08T00:04:27.885Z,17.50
2022-08-08T00:07:09.273Z,17.30
2022-08-08T00:09:58.751Z,17.60
2022-08-08T00:12:56.256Z,17.60
2022-08-08T00:15:55.948Z,17.40
2022-08-08T00:18:30.643Z,17.20
2022-08-08T00:21:05.201Z,17.30
2022-08-08T00:23:51.176Z,17.20
2022-08-08T00:26:42.936Z,17.20
2022-08-08T00:29:46.039Z,17.30
2022-08-08T00:32:36.285Z,17.20
2022-08-08T00:35:18.938Z,17.20
2022-08-08T00:38:32.050Z,17.30
2022-08-08T00:41:14.692Z,17.20
2022-08-08T00:44:01.265Z,17.40
2022-08-08T00:47:14.142Z,17.50
2022-08-08T00:50:11.246Z,17.40
2022-08-08T00:52:48.438Z,17.30
2022-08-08T00:56:09.402Z,17.30
2022-08-08T00:58:55.321Z,17.40
2022-08-08T01:01:38.175Z,17.50
2022-08-08T01:05:08.971Z,17.40
2022-08-08T01:07:55.703Z,17.40
2022-08-08T01:11:03.493Z,17.50
2022-08-08T01:13:53.108Z,17.70
2022-08-08T01:16:46.957Z,17.80
2022-08-08T01:20:03.284Z,17.80
2022-08-08T01:22:57.447Z,17.90
2022-08-08T01:25:54.302Z,17.80
2022-08-08T01:29:01.818Z,17.70
2022-08-08T01:32:17.370Z,17.60
2022-08-08T01:34:55.067Z,17.40
2022-08-08T01:37:58.053Z,17.50
2022-08-08T01:40:51.999Z,17.30
2022-08-08T01:43:25.436Z,17.20
2022-08-08T01:46:23.592Z,17.10
2022-08-08T01:49:14.227Z,17.10
2022-08-08T01:52:51.773Z,17.00
2022-08-08T01:56:29.080Z,17.00
2022-08-08T01:59:14.259Z,17.20
2022-08-08T02:02:35.011Z,17.20
2022-08-08T02:05:55.940Z,17.10
2022-08-08T02:08:22.071Z,17.10
2022-08-08T02:11:01.656Z,17.00
2022-08-08T02:13:54.397Z,16.90
2022-08-08T02:16:52.480Z,16.90
2022-08-08T02:20:07.967Z,16.90
2022-08-08T02:22:55.119Z,16.70
2022-08-08T02:25:48.783Z,16.60
2022-08-08T02:28:35.244Z,16.50
2022-08-08T02:31:58.826Z,16.40
2022-08-08T02:35:10.408Z,16.20
2022-08-08T02:38:38.043Z,16.20
2022-08-08T02:41:58.866Z,16.10
2022-08-08T02:45:09.613Z,16.00
2022-08-08T02:48:10.254Z,16.00
2022-08-08T02:50:56.108Z,15.90
2022-08-08T02:53:40.945Z,15.90
2022-08-08T02:56:46.888Z,15.90
2022-08-08T02:59:57.790Z,15.80
2022-08-08T03:02:59.940Z,15.70
2022-08-08T03:05:46.879Z,15.70
2022-08-08T03:08:44.351Z,15.60
2022-08-08T03:12:03.108Z,15.60
2022-08-08T03:16:01.433Z,15.60
2022-08-08T03:18:13.715Z,15.40
2022-08-08T03:20:46.969Z,15.30
2022-08-08T03:23:23.392Z,15.30
2022-08-08T03:25:51.753Z,15.30
2022-08-08T03:28:47.391Z,15.30
2022-08-08T03:32:06.489Z,15.30
2022-08-08T03:34:31.379Z,15.20
2022-08-08T03:36:58.621Z,15.40
2022-08-08T03:39:26.188Z,15.60
2022-08-08T03:42:28.778Z,15.50
2022-08-08T03:44:47.873Z,15.50
2022-08-08T03:47:22.226Z,15.60
2022-08-08T03:50:00.381Z,15.50
2022-08-08T03:52:34.124Z,15.50
2022-08-08T03:55:55.711Z,15.50
2022-08-08T03:58:31.720Z,15.50
2022-08-08T04:01:02.196Z,15.40
2022-08-08T04:03:56.955Z,15.30
2022-08-08T04:06:29.689Z,15.20
2022-08-08T04:09:10.866Z,15.20
2022-08-08T04:11:58.085Z,15.30
2022-08-08T04:14:33.880Z,15.50
2022-08-08T04:17:02.517Z,15.60
2022-08-08T04:19:36.564Z,15.60
2022-08-08T04:22:04.659Z,15.60
2022-08-08T04:24:36.733Z,15.50
2022-08-08T04:27:19.417Z,15.50
2022-08-08T04:30:01.038Z,15.60
2022-08-08T04:32:46.851Z,15.60
2022-08-08T04:35:15.348Z,15.50
2022-08-08T04:37:43.711Z,15.70
2022-08-08T04:40:17.887Z,15.60
2022-08-08T04:42:57.166Z,15.70
2022-08-08T04:45:41.847Z,15.60
2022-08-08T04:48:10.211Z,15.60
2022-08-08T04:50:46.015Z,15.60
2022-08-08T04:54:27.325Z,15.60
2022-08-08T04:56:06.339Z,15.60
2022-08-08T04:58:35.322Z,15.60
2022-08-08T05:01:08.893Z,15.60
2022-08-08T05:04:11.681Z,15.60
2022-08-08T05:06:30.996Z,15.60
2022-08-08T05:09:02.631Z,15.50
2022-08-08T05:11:38.568Z,15.70
2022-08-08T05:14:12.014Z,15.70
2022-08-08T05:16:54.355Z,15.80
2022-08-08T05:20:10.851Z,15.90
2022-08-08T05:22:19.132Z,16.00
2022-08-08T05:24:49.637Z,16.20
2022-08-08T05:27:20.323Z,16.40
2022-08-08T05:29:51.938Z,16.50
2022-08-08T05:32:27.633Z,16.70
2022-08-08T05:35:04.528Z,16.90
2022-08-08T05:37:53.360Z,17.00
2022-08-08T05:40:31.256Z,17.20
2022-08-08T05:43:39.894Z,17.40
2022-08-08T05:46:03.714Z,17.60
2022-08-08T05:48:38.025Z,17.70
2022-08-08T05:51:14.859Z,17.90
2022-08-08T05:54:26.148Z,18.20
2022-08-08T05:56:42.691Z,18.40
2022-08-08T05:59:58.879Z,18.50
2022-08-08T06:02:43.566Z,18.80
2022-08-08T06:05:34.197Z,18.90
2022-08-08T06:08:09.530Z,18.90
2022-08-08T06:10:40.751Z,19.20
2022-08-08T06:13:09.871Z,19.30
2022-08-08T06:15:50.475Z,19.60
2022-08-08T06:18:29.906Z,19.80
2022-08-08T06:20:59.666Z,20.00
2022-08-08T06:23:52.434Z,20.10
2022-08-08T06:26:38.710Z,20.30
2022-08-08T06:29:26.694Z,20.30
2022-08-08T06:32:10.663Z,20.50
2022-08-08T06:35:02.872Z,20.60
2022-08-08T06:37:45.409Z,20.70
2022-08-08T06:40:19.328Z,20.60
2022-08-08T06:43:28.531Z,20.50
2022-08-08T06:46:08.771Z,20.60
2022-08-08T06:48:38.156Z,20.70
2022-08-08T06:51:07.570Z,20.70
2022-08-08T06:53:38.933Z,21.10
2022-08-08T06:56:09.746Z,21.30
2022-08-08T06:58:39.871Z,21.50
2022-08-08T07:01:52.750Z,21.60
2022-08-08T07:04:37.555Z,21.70
2022-08-08T07:07:10.460Z,21.90
2022-08-08T07:10:00.085Z,21.90
2022-08-08T07:13:02.442Z,21.90
2022-08-08T07:16:04.753Z,21.90
2022-08-08T07:18:57.384Z,21.80
2022-08-08T07:21:32.683Z,22.20
2022-08-08T07:24:09.560Z,22.60
2022-08-08T07:27:00.437Z,22.40
2022-08-08T07:30:02.419Z,22.70
2022-08-08T07:32:25.676Z,22.50
2022-08-08T07:35:00.578Z,22.60
2022-08-08T07:37:42.629Z,22.80
2022-08-08T07:40:32.493Z,22.90
2022-08-08T07:43:08.816Z,23.00
2022-08-08T07:46:05.034Z,23.20
2022-08-08T07:48:25.620Z,23.40
2022-08-08T07:51:01.470Z,23.50
2022-08-08T07:54:00.648Z,23.20
2022-08-08T07:56:44.343Z,23.30
2022-08-08T07:59:15.689Z,23.80
2022-08-08T08:02:33.480Z,24.10
2022-08-08T08:04:55.980Z,23.60
2022-08-08T08:07:32.270Z,24.00
2022-08-08T08:10:12.480Z,24.20
2022-08-08T08:13:25.267Z,24.40
2022-08-08T08:16:03.411Z,24.30
2022-08-08T08:18:51.826Z,24.50
2022-08-08T08:21:35.525Z,24.90
2022-08-08T08:24:26.761Z,24.70
2022-08-08T08:27:03.576Z,25.10
2022-08-08T08:29:31.790Z,25.30
2022-08-08T08:32:03.560Z,25.50
2022-08-08T08:34:34.143Z,25.70
2022-08-08T08:37:07.822Z,25.50
2022-08-08T08:39:59.778Z,25.70
2022-08-08T08:42:32.040Z,25.90
2022-08-08T08:45:21.690Z,26.20
2022-08-08T08:47:58.526Z,26.70
2022-08-08T08:50:34.678Z,27.50
2022-08-08T08:53:54.090Z,28.20
2022-08-08T08:56:04.047Z,29.10
2022-08-08T08:58:50.419Z,29.40
2022-08-08T09:01:24.754Z,30.00
2022-08-08T09:03:55.722Z,30.10
2022-08-08T09:06:35.252Z,29.50
2022-08-08T09:09:26.693Z,30.10
2022-08-08T09:12:09.963Z,30.90
2022-08-08T09:14:44.892Z,30.40
2022-08-08T09:17:19.054Z,30.70
2022-08-08T09:22:01.317Z,30.80
2022-08-08T09:22:39.275Z,31.10
2022-08-08T09:25:09.938Z,31.10
2022-08-08T09:27:55.725Z,31.50
2022-08-08T09:30:28.619Z,32.40
2022-08-08T09:33:54.023Z,32.50
2022-08-08T09:35:51.208Z,32.30
2022-08-08T09:38:54.070Z,32.70
2022-08-08T09:42:15.203Z,33.30
2022-08-08T09:44:47.962Z,34.20
2022-08-08T09:48:02.489Z,34.30
2022-08-08T09:50:13.649Z,34.50
2022-08-08T09:52:59.361Z,34.70
2022-08-08T09:55:51.366Z,35.60
2022-08-08T09:58:27.614Z,33.80
2022-08-08T10:01:14.857Z,33.60
2022-08-08T10:03:46.060Z,33.60
2022-08-08T10:06:29.463Z,34.00
2022-08-08T10:08:57.426Z,33.40
2022-08-08T10:12:28.217Z,34.70
2022-08-08T10:14:28.124Z,35.10
2022-08-08T10:16:59.346Z,36.00
2022-08-08T10:19:57.212Z,35.40
2022-08-08T10:22:26.806Z,36.30
2022-08-08T10:25:05.287Z,37.60
2022-08-08T10:27:42.046Z,36.90
2022-08-08T10:30:23.581Z,38.60
2022-08-08T10:33:00.376Z,37.70
2022-08-08T10:36:09.404Z,36.60
2022-08-08T10:38:19.682Z,35.80
2022-08-08T10:40:52.138Z,34.80
2022-08-08T10:43:22.959Z,35.80
2022-08-08T10:45:56.800Z,36.30
2022-08-08T10:48:56.503Z,36.00
2022-08-08T10:51:26.095Z,35.60
2022-08-08T10:53:59.782Z,35.50
2022-08-08T10:56:36.075Z,36.30
2022-08-08T10:59:12.160Z,37.60
2022-08-08T11:01:46.679Z,35.30
2022-08-08T11:04:38.608Z,34.60
2022-08-08T11:07:06.784Z,34.90
2022-08-08T11:09:34.361Z,35.00
2022-08-08T11:12:12.778Z,34.30
2022-08-08T11:14:57.183Z,36.20
2022-08-08T11:18:00.211Z,37.40
2022-08-08T11:20:24.979Z,37.60
2022-08-08T11:22:56.963Z,37.20
2022-08-08T11:25:52.663Z,38.00
2022-08-08T11:28:15.794Z,36.70
2022-08-08T11:30:50.511Z,37.80
2022-08-08T11:33:22.188Z,36.50
2022-08-08T11:36:09.487Z,35.00
2022-08-08T11:38:54.034Z,36.00
2022-08-08T11:41:27.749Z,37.10
2022-08-08T11:43:57.891Z,36.60
2022-08-08T11:46:28.086Z,36.00
2022-08-08T11:48:59.111Z,36.80
2022-08-08T11:51:38.209Z,36.50
2022-08-08T11:54:31.361Z,36.00
2022-08-08T11:56:56.739Z,35.30
2022-08-08T11:59:57.876Z,34.50
2022-08-08T12:02:32.365Z,35.10
2022-08-08T12:05:12.332Z,34.70
2022-08-08T12:07:54.089Z,36.20
2022-08-08T12:10:27.716Z,36.90
2022-08-08T12:13:05.782Z,38.50
2022-08-08T12:15:46.854Z,40.20
2022-08-08T12:18:24.474Z,40.80
2022-08-08T12:20:59.888Z,41.50
2022-08-08T12:23:43.244Z,40.10
2022-08-08T12:26:28.121Z,39.70
2022-08-08T12:29:17.251Z,38.50
2022-08-08T12:31:53.859Z,37.70
2022-08-08T12:34:44.086Z,38.90
2022-08-08T12:37:23.076Z,38.50
2022-08-08T12:40:23.843Z,39.90
2022-08-08T12:42:53.059Z,39.70
2022-08-08T12:45:58.700Z,39.00
2022-08-08T12:48:37.362Z,38.40
2022-08-08T12:51:10.859Z,39.80
2022-08-08T12:53:59.210Z,40.80
2022-08-08T12:56:40.071Z,42.20
2022-08-08T12:59:18.121Z,41.10
2022-08-08T13:02:01.700Z,39.70
2022-08-08T13:04:34.450Z,39.80
2022-08-08T13:07:07.511Z,40.70
2022-08-08T13:09:43.326Z,42.10
2022-08-08T13:12:48.610Z,44.00
2022-08-08T13:15:19.503Z,42.70
2022-08-08T13:18:08.618Z,42.70
2022-08-08T13:20:44.590Z,43.00
2022-08-08T13:23:41.909Z,43.50
2022-08-08T13:26:18.328Z,42.80
2022-08-08T13:28:48.984Z,43.20
2022-08-08T13:31:17.095Z,43.40
2022-08-08T13:33:50.111Z,44.00
2022-08-08T13:36:18.120Z,43.70
2022-08-08T13:38:54.510Z,44.10
2022-08-08T13:41:22.573Z,45.30
2022-08-08T13:43:50.742Z,44.10
2022-08-08T13:46:27.353Z,44.10
2022-08-08T13:49:11.368Z,43.30
2022-08-08T13:51:57.713Z,42.90
2022-08-08T13:54:29.439Z,42.00
2022-08-08T13:57:11.276Z,40.90
2022-08-08T13:59:48.070Z,40.60
2022-08-08T14:02:21.577Z,43.30
2022-08-08T14:04:53.970Z,45.10
2022-08-08T14:07:22.689Z,45.80
2022-08-08T14:10:02.561Z,46.40
2022-08-08T14:12:39.491Z,46.20
2022-08-08T14:15:22.568Z,45.50
2022-08-08T14:18:34.522Z,44.10
2022-08-08T14:21:02.586Z,45.00
2022-08-08T14:24:06.473Z,41.90
2022-08-08T14:26:28.064Z,42.40
2022-08-08T14:28:58.128Z,41.70
2022-08-08T14:32:05.877Z,40.60
2022-08-08T14:34:19.472Z,40.50
2022-08-08T14:36:54.873Z,42.20
2022-08-08T14:39:24.816Z,42.20
2022-08-08T14:42:03.280Z,42.40
2022-08-08T14:44:35.610Z,43.30
2022-08-08T14:47:16.906Z,44.10
2022-08-08T14:50:06.292Z,43.50
2022-08-08T14:52:42.868Z,40.80
2022-08-08T14:55:10.582Z,42.10
2022-08-08T14:58:06.326Z,42.90
2022-08-08T15:00:27.468Z,44.00
2022-08-08T15:02:58.720Z,41.00
2022-08-08T15:05:52.449Z,40.10
2022-08-08T15:08:35.689Z,41.70
2022-08-08T15:11:11.421Z,41.20
2022-08-08T15:14:01.179Z,41.50
2022-08-08T15:16:34.520Z,41.70
2022-08-08T15:19:02.546Z,42.30
2022-08-08T15:21:30.213Z,42.30
2022-08-08T15:23:57.721Z,43.20
2022-08-08T15:26:25.701Z,41.60
2022-08-08T15:28:54.362Z,41.90
2022-08-08T15:31:55.880Z,42.20
2022-08-08T15:34:29.730Z,43.50
2022-08-08T15:37:03.153Z,42.90
2022-08-08T15:39:38.239Z,41.90
2022-08-08T15:42:10.488Z,41.40
2022-08-08T15:44:42.236Z,39.70
2022-08-08T15:47:16.306Z,39.10
2022-08-08T15:49:48.583Z,40.10
2022-08-08T15:52:17.758Z,40.70
2022-08-08T15:54:46.213Z,41.70
2022-08-08T15:57:16.172Z,41.30
2022-08-08T16:00:05.100Z,41.90
2022-08-08T16:02:43.802Z,40.80
2022-08-08T16:05:19.002Z,41.80
2022-08-08T16:07:52.810Z,41.20
2022-08-08T16:13:14.267Z,40.20
2022-08-08T16:13:28.498Z,41.10
2022-08-08T16:16:17.651Z,41.10
2022-08-08T16:18:53.138Z,39.20
2022-08-08T16:21:32.010Z,39.10
2022-08-08T16:24:01.920Z,39.00
2022-08-08T16:26:34.783Z,40.30
2022-08-08T16:29:08.182Z,42.20
2022-08-08T16:31:37.698Z,41.40
2022-08-08T16:34:04.830Z,41.80
2022-08-08T16:36:33.993Z,41.80
2022-08-08T16:39:09.931Z,41.70
2022-08-08T16:41:51.196Z,40.80
2022-08-08T16:44:27.628Z,40.90
2022-08-08T16:47:21.878Z,40.10
2022-08-08T16:49:59.993Z,39.40
2022-08-08T16:55:00.056Z,39.30
2022-08-08T16:55:42.801Z,38.40
2022-08-08T16:58:14.873Z,37.20
2022-08-08T17:00:48.706Z,38.50
2022-08-08T17:03:24.263Z,39.40
2022-08-08T17:05:53.564Z,39.20
2022-08-08T17:08:20.707Z,38.70
2022-08-08T17:10:57.923Z,39.40
2022-08-08T17:13:27.621Z,39.60
2022-08-08T17:16:07.839Z,40.70
2022-08-08T17:18:42.724Z,39.80
2022-08-08T17:21:12.478Z,39.00
2022-08-08T17:24:00.803Z,37.90
2022-08-08T17:26:29.443Z,36.60
2022-08-08T17:28:57.314Z,34.10
2022-08-08T17:31:44.593Z,33.00
2022-08-08T17:34:52.812Z,32.40
2022-08-08T17:37:06.813Z,31.50
2022-08-08T17:40:04.451Z,30.80
2022-08-08T17:42:24.151Z,30.40
2022-08-08T17:44:52.508Z,30.00
2022-08-08T17:47:23.639Z,29.60
2022-08-08T17:49:53.023Z,29.30
2022-08-08T17:52:28.149Z,29.10
2022-08-08T17:54:56.264Z,28.90
2022-08-08T17:57:24.336Z,28.80
2022-08-08T17:59:51.699Z,28.70
2022-08-08T18:02:28.870Z,28.60
2022-08-08T18:04:58.613Z,28.30
2022-08-08T18:08:15.317Z,28.20
2022-08-08T18:10:15.338Z,28.20
2022-08-08T18:12:45.966Z,28.00
2022-08-08T18:15:13.207Z,27.70
2022-08-08T18:18:05.342Z,27.50
2022-08-08T18:20:36.537Z,27.40
2022-08-08T18:23:14.620Z,27.40
2022-08-08T18:25:45.070Z,27.20
2022-08-08T18:28:13.505Z,27.10
2022-08-08T18:30:42.939Z,26.90
2022-08-08T18:33:36.611Z,26.70
2022-08-08T18:36:03.103Z,26.40
2022-08-08T18:38:34.144Z,26.30
2022-08-08T18:41:02.912Z,26.10
2022-08-08T18:43:43.109Z,26.00
2022-08-08T18:46:55.988Z,25.80
2022-08-08T18:48:58.399Z,25.70
2022-08-08T18:51:52.582Z,25.30
2022-08-08T18:54:22.374Z,25.20
2022-08-08T18:56:53.633Z,25.00
2022-08-08T18:59:20.798Z,24.80
2022-08-08T19:02:26.847Z,24.70
2022-08-08T19:04:37.564Z,24.60
2022-08-08T19:07:04.481Z,24.30
2022-08-08T19:09:48.931Z,24.20
2022-08-08T19:12:19.331Z,24.10
2022-08-08T19:14:53.293Z,23.90
2022-08-08T19:17:29.438Z,23.80
2022-08-08T19:20:09.033Z,23.80
2022-08-08T19:22:36.699Z,23.70
2022-08-08T19:25:04.960Z,23.60
2022-08-08T19:27:56.523Z,23.50
2022-08-08T19:30:26.675Z,23.50
2022-08-08T19:33:00.361Z,23.40
2022-08-08T19:35:45.526Z,23.30
2022-08-08T19:38:22.232Z,23.10
2022-08-08T19:40:55.708Z,22.90
2022-08-08T19:43:28.692Z,22.90
2022-08-08T19:46:00.848Z,22.80
2022-08-08T19:48:31.290Z,22.60
2022-08-08T19:51:01.554Z,22.50
2022-08-08T19:53:47.052Z,22.50
2022-08-08T19:56:25.787Z,22.40
2022-08-08T19:59:04.364Z,22.40
2022-08-08T20:02:01.398Z,22.30
2022-08-08T20:04:22.319Z,22.30
2022-08-08T20:06:50.877Z,22.20
2022-08-08T20:09:22.648Z,22.10
2022-08-08T20:11:52.223Z,22.00
2022-08-08T20:14:34.037Z,22.00
2022-08-08T20:17:04.414Z,22.00
2022-08-08T20:19:34.833Z,22.00
2022-08-08T20:22:13.276Z,22.00
2022-08-08T20:24:53.215Z,21.80
2022-08-08T20:27:21.094Z,21.70
2022-08-08T20:30:00.495Z,21.60
2022-08-08T20:32:29.990Z,21.60
2022-08-08T20:35:01.972Z,21.60
2022-08-08T20:37:46.983Z,21.50
2022-08-08T20:40:17.965Z,21.40
2022-08-08T20:43:01.242Z,21.20
2022-08-08T20:45:54.544Z,21.10
2022-08-08T20:48:21.125Z,21.10
2022-08-08T20:50:52.971Z,21.10
2022-08-08T20:53:59.558Z,21.00
2022-08-08T20:56:08.169Z,20.80
2022-08-08T20:58:34.947Z,20.60
2022-08-08T21:01:01.729Z,20.40
2022-08-08T21:03:29.675Z,20.50
2022-08-08T21:05:59.388Z,20.40
2022-08-08T21:08:35.192Z,20.30
2022-08-08T21:11:14.008Z,20.20
2022-08-08T21:13:43.498Z,20.20
2022-08-08T21:16:18.210Z,20.10
2022-08-08T21:18:48.039Z,20.20
2022-08-08T21:21:19.605Z,20.10
2022-08-08T21:23:58.822Z,20.20
2022-08-08T21:26:30.703Z,20.10
2022-08-08T21:29:02.231Z,20.10
2022-08-08T21:31:53.312Z,20.00
2022-08-08T21:34:18.583Z,20.00
2022-08-08T21:36:47.960Z,19.90
2022-08-08T21:39:16.095Z,19.70
2022-08-08T21:41:54.028Z,19.70
2022-08-08T21:44:26.283Z,19.80
2022-08-08T21:48:05.600Z,19.80
2022-08-08T21:49:39.985Z,19.80
2022-08-08T21:54:32.492Z,19.80
2022-08-08T21:55:02.911Z,19.80
2022-08-08T21:57:31.226Z,19.70
2022-08-08T22:00:14.400Z,19.70
2022-08-08T22:02:42.829Z,19.60
2022-08-08T22:05:11.898Z,19.50
2022-08-08T22:07:44.175Z,19.50
2022-08-08T22:10:28.409Z,19.60
2022-08-08T22:13:16.601Z,19.50
2022-08-08T22:15:43.760Z,19.50
2022-08-08T22:18:31.374Z,19.40
2022-08-08T22:21:01.585Z,19.30
2022-08-08T22:23:41.141Z,19.30
2022-08-08T22:26:28.806Z,19.30
2022-08-08T22:29:14.446Z,19.40
2022-08-08T22:31:58.574Z,19.40
2022-08-08T22:34:39.255Z,19.30
2022-08-08T22:37:07.473Z,19.30
2022-08-08T22:40:01.316Z,19.30
2022-08-08T22:42:31.770Z,19.20
2022-08-08T22:45:01.112Z,19.10
2022-08-08T22:47:38.362Z,19.10
2022-08-08T22:50:09.619Z,19.20
2022-08-08T22:53:24.137Z,19.20
2022-08-08T22:55:59.041Z,19.30
2022-08-08T22:58:28.499Z,19.20
2022-08-08T23:00:59.704Z,19.30
2022-08-08T23:03:52.874Z,19.20
2022-08-08T23:06:16.091Z,19.20
2022-08-08T23:08:54.351Z,19.20
2022-08-08T23:11:57.925Z,19.30
2022-08-08T23:14:11.381Z,19.20
2022-08-08T23:16:43.381Z,19.20
2022-08-08T23:19:11.676Z,19.20
2022-08-08T23:21:39.106Z,19.20
2022-08-08T23:24:06.933Z,19.30
2022-08-08T23:26:34.475Z,19.70
2022-08-08T23:29:02.076Z,19.80
2022-08-08T23:31:29.272Z,19.70
2022-08-08T23:34:18.161Z,19.80
2022-08-08T23:36:47.847Z,19.80
2022-08-08T23:39:15.525Z,19.80
2022-08-08T23:41:47.020Z,19.80
2022-08-08T23:44:18.777Z,19.90
2022-08-08T23:49:03.739Z,19.80
2022-08-08T23:49:34.088Z,19.90
2022-08-08T23:52:04.530Z,19.90
2022-08-08T23:54:41.240Z,19.90
2022-08-08T23:57:27.195Z,20.00
